createdAt,value
2018-08-22T00:00:54.730Z,21.10
2018-08-22T00:03:24.459Z,21.10
2018-08-22T00:05:54.309Z,21.10
2018-08-22T00:08:29.189Z,21.10
2018-08-22T00:10:58.828Z,21.00
2018-08-22T00:13:28.536Z,21.00
2018-08-22T00:15:58.360Z,21.00
2018-08-22T00:18:28.203Z,21.00
2018-08-22T00:20:58.020Z,20.90
2018-08-22T00:23:27.714Z,20.90
2018-08-22T00:25:57.493Z,20.90
2018-08-22T00:28:27.088Z,20.90
2018-08-22T00:30:56.730Z,20.80
2018-08-22T00:33:26.273Z,20.80
2018-08-22T00:35:55.885Z,20.80
2018-08-22T00:38:25.598Z,20.80
2018-08-22T00:40:55.670Z,20.70
2018-08-22T00:43:25.330Z,20.70
2018-08-22T00:45:54.941Z,20.60
2018-08-22T00:48:24.574Z,20.60
2018-08-22T00:50:54.348Z,20.60
2018-08-22T00:53:23.977Z,20.50
2018-08-22T00:55:53.605Z,20.50
2018-08-22T00:58:23.281Z,20.50
2018-08-22T01:00:53.085Z,20.50
2018-08-22T01:03:22.665Z,20.40
2018-08-22T01:05:52.302Z,20.40
2018-08-22T01:08:22.085Z,20.40
2018-08-22T01:10:51.813Z,20.40
2018-08-22T01:13:21.580Z,20.40
2018-08-22T01:15:51.177Z,20.30
2018-08-22T01:18:20.879Z,20.30
2018-08-22T01:20:50.399Z,20.30
2018-08-22T01:23:20.061Z,20.30
2018-08-22T01:25:49.828Z,20.30
2018-08-22T01:28:19.409Z,20.30
2018-08-22T01:30:49.083Z,20.30
2018-08-22T01:33:18.759Z,20.30
2018-08-22T01:35:48.308Z,20.30
2018-08-22T01:38:17.983Z,20.30
2018-08-22T01:40:47.598Z,20.30
2018-08-22T01:43:17.482Z,20.20
2018-08-22T01:45:47.110Z,20.20
2018-08-22T01:49:19.428Z,20.20
2018-08-22T01:51:49.203Z,20.20
2018-08-22T01:54:18.821Z,20.20
2018-08-22T01:56:48.456Z,20.20
2018-08-22T01:59:18.255Z,20.10
2018-08-22T02:01:47.871Z,20.10
2018-08-22T02:04:17.569Z,20.10
2018-08-22T02:06:47.245Z,20.10
2018-08-22T02:09:16.901Z,20.10
2018-08-22T02:11:46.938Z,20.10
2018-08-22T02:14:16.676Z,20.10
2018-08-22T02:16:46.428Z,20.10
2018-08-22T02:19:16.035Z,20.00
2018-08-22T02:21:45.788Z,20.00
2018-08-22T02:24:15.364Z,20.00
2018-08-22T02:26:45.085Z,20.00
2018-08-22T02:29:14.831Z,20.00
2018-08-22T02:31:44.624Z,20.00
2018-08-22T02:34:14.259Z,20.00
2018-08-22T02:36:44.006Z,20.00
2018-08-22T02:39:13.711Z,20.00
2018-08-22T02:41:43.326Z,20.00
2018-08-22T02:44:13.001Z,20.00
2018-08-22T02:46:42.764Z,20.10
2018-08-22T02:49:15.318Z,20.10
2018-08-22T02:51:44.966Z,20.10
2018-08-22T02:54:14.762Z,20.10
2018-08-22T02:56:44.418Z,20.10
2018-08-22T02:59:14.286Z,20.10
2018-08-22T03:01:43.907Z,20.10
2018-08-22T03:04:13.573Z,20.10
2018-08-22T03:06:43.368Z,20.10
2018-08-22T03:09:13.026Z,20.10
2018-08-22T03:11:42.774Z,20.10
2018-08-22T03:14:12.417Z,20.10
2018-08-22T03:16:42.053Z,20.10
2018-08-22T03:19:11.834Z,20.10
2018-08-22T03:21:41.555Z,20.10
2018-08-22T03:24:11.189Z,20.10
2018-08-22T03:26:41.039Z,20.20
2018-08-22T03:29:10.655Z,20.20
2018-08-22T03:31:40.305Z,20.20
2018-08-22T03:34:09.986Z,20.20
2018-08-22T03:36:39.697Z,20.20
2018-08-22T03:39:10.061Z,20.20
2018-08-22T03:41:39.851Z,20.20
2018-08-22T03:44:09.547Z,20.20
2018-08-22T03:46:39.293Z,20.20
2018-08-22T03:49:09.201Z,20.30
2018-08-22T03:51:38.859Z,20.30
2018-08-22T03:54:08.616Z,20.40
2018-08-22T03:56:38.248Z,20.40
2018-08-22T03:59:07.907Z,20.40
2018-08-22T04:01:37.715Z,20.40
2018-08-22T04:04:07.439Z,20.50
2018-08-22T04:06:37.032Z,20.50
2018-08-22T04:09:08.143Z,20.50
2018-08-22T04:11:37.886Z,20.50
2018-08-22T04:14:07.734Z,20.50
2018-08-22T04:16:37.450Z,20.60
2018-08-22T04:19:07.076Z,20.60
2018-08-22T04:21:36.762Z,20.70
2018-08-22T04:24:06.374Z,20.70
2018-08-22T04:26:36.104Z,20.70
2018-08-22T04:29:06.076Z,20.70
2018-08-22T04:31:35.786Z,20.70
2018-08-22T04:34:05.389Z,20.70
2018-08-22T04:36:35.038Z,20.70
2018-08-22T04:39:06.102Z,20.80
2018-08-22T04:41:35.788Z,20.80
2018-08-22T04:44:05.546Z,20.80
2018-08-22T04:46:35.284Z,20.80
2018-08-22T04:49:04.996Z,20.80
2018-08-22T04:51:34.679Z,20.80
2018-08-22T04:54:04.288Z,20.80
2018-08-22T04:56:34.449Z,20.80
2018-08-22T04:59:04.224Z,20.80
2018-08-22T05:01:34.658Z,20.80
2018-08-22T05:04:04.323Z,20.80
2018-08-22T05:06:33.998Z,20.80
2018-08-22T05:09:04.631Z,20.80
2018-08-22T05:11:34.208Z,20.80
2018-08-22T05:14:04.153Z,20.80
2018-08-22T05:16:33.971Z,20.80
2018-08-22T05:19:03.735Z,20.80
2018-08-22T05:21:33.478Z,20.80
2018-08-22T05:24:03.268Z,20.80
2018-08-22T05:26:33.058Z,20.80
2018-08-22T05:29:02.735Z,20.80
2018-08-22T05:31:32.466Z,20.80
2018-08-22T05:34:02.308Z,20.90
2018-08-22T05:36:32.027Z,20.90
2018-08-22T05:39:01.755Z,20.90
2018-08-22T05:41:31.577Z,21.00
2018-08-22T05:44:01.184Z,21.00
2018-08-22T05:46:31.020Z,21.00
2018-08-22T05:49:00.614Z,21.10
2018-08-22T05:51:30.304Z,21.10
2018-08-22T05:54:00.208Z,21.10
2018-08-22T05:56:29.949Z,21.20
2018-08-22T05:58:59.505Z,21.20
2018-08-22T06:01:29.118Z,21.20
2018-08-22T06:03:58.923Z,21.20
2018-08-22T06:06:28.553Z,21.30
2018-08-22T06:08:58.296Z,21.30
2018-08-22T06:11:28.166Z,21.30
2018-08-22T06:13:57.938Z,21.40
2018-08-22T06:16:27.678Z,21.40
2018-08-22T06:18:57.378Z,21.50
2018-08-22T06:21:27.054Z,21.60
2018-08-22T06:23:56.838Z,21.70
2018-08-22T06:26:26.660Z,21.80
2018-08-22T06:28:56.456Z,21.90
2018-08-22T06:31:26.079Z,22.00
2018-08-22T06:33:55.792Z,22.20
2018-08-22T06:36:25.623Z,22.30
2018-08-22T06:38:55.188Z,22.50
2018-08-22T06:41:24.811Z,22.70
2018-08-22T06:43:54.481Z,22.80
2018-08-22T06:46:24.192Z,23.00
2018-08-22T06:48:54.027Z,23.20
2018-08-22T06:51:23.713Z,23.40
2018-08-22T06:53:53.346Z,23.60
2018-08-22T06:56:22.961Z,23.90
2018-08-22T06:58:52.878Z,24.00
2018-08-22T07:01:22.619Z,24.10
2018-08-22T07:03:52.388Z,24.20
2018-08-22T07:06:22.029Z,24.30
2018-08-22T07:08:51.743Z,24.40
2018-08-22T07:11:21.389Z,24.50
2018-08-22T07:13:51.167Z,24.60
2018-08-22T07:16:20.862Z,24.80
2018-08-22T07:18:50.738Z,25.00
2018-08-22T07:21:20.425Z,25.20
2018-08-22T07:23:50.005Z,25.40
2018-08-22T07:26:19.779Z,25.60
2018-08-22T07:28:49.409Z,25.80
2018-08-22T07:31:19.026Z,25.90
2018-08-22T07:33:48.762Z,26.10
2018-08-22T07:36:18.574Z,26.30
2018-08-22T07:38:48.539Z,26.50
2018-08-22T07:41:18.230Z,26.70
2018-08-22T07:43:47.938Z,27.00
2018-08-22T07:46:17.748Z,27.10
2018-08-22T07:48:47.748Z,27.30
2018-08-22T07:51:17.632Z,27.40
2018-08-22T07:53:47.560Z,27.60
2018-08-22T07:56:17.233Z,27.70
2018-08-22T07:58:47.163Z,27.90
2018-08-22T08:01:16.961Z,28.00
2018-08-22T08:03:46.714Z,28.20
2018-08-22T08:06:16.570Z,28.30
2018-08-22T08:08:46.287Z,28.40
2018-08-22T08:11:16.150Z,28.40
2018-08-22T08:13:45.922Z,28.50
2018-08-22T08:16:15.663Z,28.60
2018-08-22T08:18:45.467Z,28.70
2018-08-22T08:21:15.203Z,28.80
2018-08-22T08:23:45.038Z,28.90
2018-08-22T08:26:14.838Z,29.00
2018-08-22T08:28:44.588Z,29.00
2018-08-22T08:31:14.177Z,29.00
2018-08-22T08:33:43.965Z,29.00
2018-08-22T08:36:13.901Z,29.00
2018-08-22T08:38:43.763Z,29.00
2018-08-22T08:41:13.821Z,29.10
2018-08-22T08:43:43.976Z,29.20
2018-08-22T08:46:13.663Z,29.30
2018-08-22T08:48:43.424Z,29.50
2018-08-22T08:51:13.266Z,29.60
2018-08-22T08:53:42.943Z,29.80
2018-08-22T08:56:12.764Z,29.80
2018-08-22T08:58:42.592Z,29.90
2018-08-22T09:01:12.314Z,29.90
2018-08-22T09:03:42.066Z,30.00
2018-08-22T09:06:11.904Z,30.10
2018-08-22T09:08:41.930Z,30.20
2018-08-22T09:11:11.835Z,30.30
2018-08-22T09:13:46.628Z,30.40
2018-08-22T09:16:16.890Z,30.50
2018-08-22T09:18:46.546Z,30.50
2018-08-22T09:21:16.254Z,30.60
2018-08-22T09:23:45.926Z,30.80
2018-08-22T09:26:15.682Z,31.00
2018-08-22T09:28:45.574Z,31.10
2018-08-22T09:31:15.298Z,31.30
2018-08-22T09:33:45.045Z,31.50
2018-08-22T09:36:14.741Z,31.70
2018-08-22T09:38:44.494Z,31.90
2018-08-22T09:41:14.380Z,32.00
2018-08-22T09:43:44.175Z,32.10
2018-08-22T09:46:13.797Z,32.30
2018-08-22T09:48:43.683Z,32.40
2018-08-22T09:51:13.496Z,32.40
2018-08-22T09:53:43.167Z,32.50
2018-08-22T09:56:13.563Z,32.50
2018-08-22T09:58:43.417Z,32.50
2018-08-22T10:01:18.526Z,32.60
2018-08-22T10:03:59.264Z,32.60
2018-08-22T10:06:37.908Z,32.70
2018-08-22T10:09:12.602Z,32.70
2018-08-22T10:11:42.382Z,32.80
2018-08-22T10:14:12.462Z,32.90
2018-08-22T10:16:42.421Z,33.00
2018-08-22T10:19:12.175Z,33.10
2018-08-22T10:21:41.955Z,33.10
2018-08-22T10:24:11.628Z,33.20
2018-08-22T10:26:41.482Z,33.20
2018-08-22T10:29:11.172Z,33.20
2018-08-22T10:31:40.862Z,33.30
2018-08-22T10:34:10.662Z,33.30
2018-08-22T10:36:40.479Z,33.30
2018-08-22T10:39:10.792Z,33.30
2018-08-22T10:41:40.786Z,33.30
2018-08-22T10:44:10.651Z,33.20
2018-08-22T10:46:40.465Z,33.20
2018-08-22T10:49:10.353Z,33.20
2018-08-22T10:51:40.264Z,33.10
2018-08-22T10:54:10.152Z,33.20
2018-08-22T10:56:39.913Z,33.30
2018-08-22T10:59:09.657Z,33.30
2018-08-22T11:01:39.434Z,33.40
2018-08-22T11:04:09.241Z,33.40
2018-08-22T11:06:39.020Z,33.40
2018-08-22T11:09:10.535Z,33.40
2018-08-22T11:11:40.962Z,33.40
2018-08-22T11:14:10.750Z,33.40
2018-08-22T11:16:40.506Z,33.40
2018-08-22T11:19:10.265Z,33.30
2018-08-22T11:21:56.527Z,33.30
2018-08-22T11:24:42.842Z,33.20
2018-08-22T11:27:29.091Z,33.30
2018-08-22T11:30:15.462Z,33.30
2018-08-22T11:33:01.841Z,33.40
2018-08-22T11:35:29.632Z,33.40
2018-08-22T11:37:59.416Z,33.40
2018-08-22T11:40:29.236Z,33.40
2018-08-22T11:42:58.938Z,33.60
2018-08-22T11:45:28.656Z,33.70
2018-08-22T11:47:58.472Z,33.90
2018-08-22T11:50:28.386Z,34.10
2018-08-22T11:52:58.210Z,34.20
2018-08-22T11:55:27.928Z,34.20
2018-08-22T11:57:57.818Z,34.20
2018-08-22T12:00:27.550Z,34.30
2018-08-22T12:02:57.237Z,34.30
2018-08-22T12:05:26.956Z,34.40
2018-08-22T12:07:56.704Z,34.30
2018-08-22T12:10:30.698Z,34.10
2018-08-22T12:13:03.342Z,34.00
2018-08-22T12:15:34.276Z,33.80
2018-08-22T12:18:04.287Z,33.70
2018-08-22T12:20:34.241Z,33.60
2018-08-22T12:23:04.405Z,33.50
2018-08-22T12:25:34.265Z,33.50
2018-08-22T12:28:04.283Z,33.50
2018-08-22T12:30:34.035Z,33.60
2018-08-22T12:33:04.179Z,33.70
2018-08-22T12:35:34.049Z,33.70
2018-08-22T12:38:03.935Z,33.70
2018-08-22T12:40:33.925Z,33.70
2018-08-22T12:43:03.819Z,33.60
2018-08-22T12:45:33.646Z,33.40
2018-08-22T12:48:03.382Z,33.10
2018-08-22T12:50:33.052Z,32.90
2018-08-22T12:53:02.707Z,32.70
2018-08-22T12:55:32.578Z,32.50
2018-08-22T12:58:02.450Z,32.50
2018-08-22T13:00:32.183Z,32.50
2018-08-22T13:03:01.943Z,32.60
2018-08-22T13:05:31.698Z,32.80
2018-08-22T13:08:01.432Z,32.80
2018-08-22T13:10:31.146Z,32.80
2018-08-22T13:13:00.906Z,32.80
2018-08-22T13:15:30.723Z,32.90
2018-08-22T13:18:00.498Z,33.00
2018-08-22T13:20:30.226Z,33.00
2018-08-22T13:22:59.939Z,33.00
2018-08-22T13:25:29.638Z,32.90
2018-08-22T13:27:59.425Z,32.70
2018-08-22T13:30:29.125Z,32.50
2018-08-22T13:32:58.988Z,32.30
2018-08-22T13:35:28.907Z,32.10
2018-08-22T13:37:58.724Z,31.90
2018-08-22T13:40:28.419Z,31.80
2018-08-22T13:42:58.251Z,31.60
2018-08-22T13:45:28.077Z,31.50
2018-08-22T13:47:57.842Z,31.40
2018-08-22T13:50:27.635Z,31.40
2018-08-22T13:52:57.554Z,31.50
2018-08-22T13:55:27.443Z,31.50
2018-08-22T13:57:57.351Z,31.50
2018-08-22T14:00:27.165Z,31.50
2018-08-22T14:02:56.972Z,31.50
2018-08-22T14:05:26.807Z,31.40
2018-08-22T14:07:56.502Z,31.40
2018-08-22T14:10:26.283Z,31.40
2018-08-22T14:12:55.917Z,31.50
2018-08-22T14:15:25.718Z,31.50
2018-08-22T14:17:55.354Z,31.70
2018-08-22T14:20:24.972Z,31.80
2018-08-22T14:22:54.698Z,31.90
2018-08-22T14:25:24.511Z,32.10
2018-08-22T14:27:54.312Z,32.20
2018-08-22T14:30:24.144Z,32.20
2018-08-22T14:32:54.034Z,32.20
2018-08-22T14:35:23.906Z,32.10
2018-08-22T14:37:53.514Z,31.90
2018-08-22T14:40:23.208Z,31.90
2018-08-22T14:42:52.973Z,31.80
2018-08-22T14:45:22.711Z,31.70
2018-08-22T14:47:52.504Z,31.80
2018-08-22T14:50:22.280Z,31.80
2018-08-22T14:52:52.077Z,31.90
2018-08-22T14:55:21.992Z,32.00
2018-08-22T14:57:51.747Z,32.10
2018-08-22T15:00:21.532Z,32.10
2018-08-22T15:02:51.552Z,32.20
2018-08-22T15:05:21.216Z,32.20
2018-08-22T15:07:51.245Z,32.30
2018-08-22T15:10:21.057Z,32.50
2018-08-22T15:12:50.794Z,32.60
2018-08-22T15:15:20.483Z,32.60
2018-08-22T15:17:50.283Z,32.60
2018-08-22T15:20:20.174Z,32.60
2018-08-22T15:22:49.910Z,32.60
2018-08-22T15:25:19.708Z,32.60
2018-08-22T15:27:49.644Z,32.70
2018-08-22T15:30:19.356Z,32.70
2018-08-22T15:32:49.212Z,32.70
2018-08-22T15:35:19.276Z,32.70
2018-08-22T15:37:49.210Z,32.70
2018-08-22T15:40:18.880Z,32.60
2018-08-22T15:42:48.818Z,32.70
2018-08-22T15:45:18.453Z,32.60
2018-08-22T15:47:48.160Z,32.50
2018-08-22T15:50:17.880Z,32.40
2018-08-22T15:52:47.685Z,32.30
2018-08-22T15:55:18.818Z,32.20
2018-08-22T15:57:58.219Z,32.00
2018-08-22T16:00:42.359Z,31.80
2018-08-22T16:03:12.813Z,31.60
2018-08-22T16:05:44.068Z,31.40
2018-08-22T16:08:15.941Z,31.40
2018-08-22T16:10:45.828Z,31.30
2018-08-22T16:13:20.820Z,31.20
2018-08-22T16:15:52.088Z,31.20
2018-08-22T16:18:22.075Z,31.10
2018-08-22T16:21:02.318Z,31.10
2018-08-22T16:23:34.065Z,31.10
2018-08-22T16:26:04.880Z,31.00
2018-08-22T16:28:55.203Z,31.00
2018-08-22T16:31:29.864Z,30.90
2018-08-22T16:33:59.680Z,30.80
2018-08-22T16:36:30.154Z,30.70
2018-08-22T16:39:00.982Z,30.60
2018-08-22T16:41:30.925Z,30.50
2018-08-22T16:44:00.730Z,30.40
2018-08-22T16:46:30.548Z,30.30
2018-08-22T16:49:00.413Z,30.20
2018-08-22T16:51:30.270Z,30.20
2018-08-22T16:54:06.508Z,30.10
2018-08-22T16:56:36.394Z,30.00
2018-08-22T16:59:13.235Z,29.90
2018-08-22T17:01:47.683Z,29.80
2018-08-22T17:04:17.348Z,29.70
2018-08-22T17:06:47.384Z,29.60
2018-08-22T17:09:17.165Z,29.50
2018-08-22T17:11:46.903Z,29.40
2018-08-22T17:14:16.611Z,29.30
2018-08-22T17:16:46.378Z,29.20
2018-08-22T17:19:16.150Z,29.10
2018-08-22T17:21:45.921Z,29.00
2018-08-22T17:24:15.669Z,28.90
2018-08-22T17:26:45.413Z,28.80
2018-08-22T17:29:15.379Z,28.70
2018-08-22T17:31:50.204Z,28.60
2018-08-22T17:34:19.942Z,28.50
2018-08-22T17:37:07.229Z,28.40
2018-08-22T17:39:36.955Z,28.30
2018-08-22T17:42:06.776Z,28.20
2018-08-22T17:44:36.506Z,28.10
2018-08-22T17:47:06.240Z,28.00
2018-08-22T17:49:35.986Z,28.00
2018-08-22T17:52:09.167Z,28.00
2018-08-22T17:54:38.974Z,27.90
2018-08-22T17:57:20.438Z,27.90
2018-08-22T17:59:50.222Z,27.90
2018-08-22T18:02:19.982Z,27.80
2018-08-22T18:05:07.851Z,27.80
2018-08-22T18:07:37.644Z,27.70
2018-08-22T18:10:07.305Z,27.60
2018-08-22T18:12:36.994Z,27.60
2018-08-22T18:15:06.937Z,27.50
2018-08-22T18:17:36.810Z,27.50
2018-08-22T18:20:06.690Z,27.40
2018-08-22T18:22:38.073Z,27.30
2018-08-22T18:25:08.191Z,27.30
2018-08-22T18:27:38.167Z,27.20
2018-08-22T18:30:12.180Z,27.20
2018-08-22T18:32:42.058Z,27.10
2018-08-22T18:35:12.515Z,27.00
2018-08-22T18:37:42.752Z,27.00
2018-08-22T18:40:21.375Z,26.90
2018-08-22T18:42:57.647Z,26.80
2018-08-22T18:45:27.932Z,26.70
2018-08-22T18:47:57.863Z,26.60
2018-08-22T18:50:27.556Z,26.60
2018-08-22T18:52:58.767Z,26.50
2018-08-22T18:55:29.731Z,26.40
2018-08-22T18:58:01.007Z,26.30
2018-08-22T19:00:31.074Z,26.20
2018-08-22T19:03:00.705Z,26.10
2018-08-22T19:05:32.737Z,26.10
2018-08-22T19:08:15.313Z,26.00
2018-08-22T19:10:47.740Z,25.90
2018-08-22T19:13:19.638Z,25.90
2018-08-22T19:15:53.796Z,25.80
2018-08-22T19:18:23.635Z,25.70
2018-08-22T19:20:56.198Z,25.70
2018-08-22T19:23:26.023Z,25.60
2018-08-22T19:25:56.444Z,25.60
2018-08-22T19:28:26.279Z,25.50
2018-08-22T19:30:55.877Z,25.40
2018-08-22T19:33:26.749Z,25.40
2018-08-22T19:35:56.791Z,25.30
2018-08-22T19:38:27.660Z,25.30
2018-08-22T19:40:58.586Z,25.20
2018-08-22T19:43:28.473Z,25.20
2018-08-22T19:45:58.178Z,25.10
2018-08-22T19:48:27.919Z,25.10
2018-08-22T19:50:57.774Z,25.00
2018-08-22T19:53:27.411Z,24.90
2018-08-22T19:55:57.111Z,24.90
2018-08-22T19:58:32.102Z,24.80
2018-08-22T20:01:01.810Z,24.80
2018-08-22T20:03:38.015Z,24.80
2018-08-22T20:06:07.604Z,24.70
2018-08-22T20:08:38.792Z,24.60
2018-08-22T20:11:08.968Z,24.60
2018-08-22T20:13:50.454Z,24.50
2018-08-22T20:16:21.245Z,24.50
2018-08-22T20:18:53.281Z,24.40
2018-08-22T20:21:28.085Z,24.30
2018-08-22T20:23:57.703Z,24.30
2018-08-22T20:26:28.132Z,24.30
2018-08-22T20:28:59.083Z,24.10
2018-08-22T20:31:28.895Z,24.10
2018-08-22T20:34:08.000Z,24.10
2018-08-22T20:36:37.763Z,24.00
2018-08-22T20:39:11.186Z,24.00
2018-08-22T20:41:41.465Z,23.90
2018-08-22T20:44:19.040Z,23.90
2018-08-22T20:46:49.766Z,23.80
2018-08-22T20:49:21.088Z,23.80
2018-08-22T20:51:50.813Z,23.70
2018-08-22T20:54:23.429Z,23.70
2018-08-22T20:56:58.378Z,23.60
2018-08-22T20:59:28.012Z,23.60
2018-08-22T21:02:04.885Z,23.60
2018-08-22T21:04:35.550Z,23.50
2018-08-22T21:07:05.744Z,23.50
2018-08-22T21:09:35.423Z,23.40
2018-08-22T21:12:05.125Z,23.40
2018-08-22T21:14:34.896Z,23.40
2018-08-22T21:17:04.913Z,23.30
2018-08-22T21:19:34.594Z,23.30
2018-08-22T21:22:09.968Z,23.20
2018-08-22T21:24:39.680Z,23.10
2018-08-22T21:27:09.250Z,23.10
2018-08-22T21:29:38.998Z,23.00
2018-08-22T21:32:08.838Z,23.00
2018-08-22T21:34:38.552Z,22.90
2018-08-22T21:37:23.293Z,22.90
2018-08-22T21:39:52.990Z,22.80
2018-08-22T21:42:26.891Z,22.70
2018-08-22T21:44:57.468Z,22.70
2018-08-22T21:47:27.454Z,22.60
2018-08-22T21:49:57.366Z,22.50
2018-08-22T21:52:29.334Z,22.50
2018-08-22T21:54:59.212Z,22.40
2018-08-22T21:57:29.087Z,22.40
2018-08-22T22:00:09.193Z,22.30
2018-08-22T22:02:43.799Z,22.20
2018-08-22T22:05:13.687Z,22.20
2018-08-22T22:07:43.430Z,22.20
2018-08-22T22:10:13.646Z,22.10
2018-08-22T22:12:43.406Z,22.00
2018-08-22T22:15:18.797Z,22.00
2018-08-22T22:17:48.609Z,22.00
2018-08-22T22:20:18.345Z,21.90
2018-08-22T22:22:47.960Z,21.90
2018-08-22T22:25:17.697Z,21.80
2018-08-22T22:27:47.396Z,21.80
2018-08-22T22:30:17.151Z,21.70
2018-08-22T22:32:47.059Z,21.70
2018-08-22T22:35:24.896Z,21.60
2018-08-22T22:37:59.210Z,21.60
2018-08-22T22:40:30.522Z,21.60
2018-08-22T22:43:00.201Z,21.50
2018-08-22T22:48:37.498Z,21.50
2018-08-22T22:51:07.978Z,21.40
2018-08-22T22:53:37.992Z,21.40
2018-08-22T22:56:07.911Z,21.40
2018-08-22T22:58:38.378Z,21.40
2018-08-22T23:01:08.354Z,21.40
2018-08-22T23:03:38.190Z,21.40
2018-08-22T23:06:07.814Z,21.30
2018-08-22T23:08:37.548Z,21.30
2018-08-22T23:11:08.460Z,21.30
2018-08-22T23:13:39.110Z,21.30
2018-08-22T23:16:09.667Z,21.30
2018-08-22T23:18:39.401Z,21.30
2018-08-22T23:21:08.894Z,21.20
2018-08-22T23:23:39.098Z,21.20
2018-08-22T23:26:15.549Z,21.20
2018-08-22T23:28:45.725Z,21.10
2018-08-22T23:31:18.636Z,21.10
2018-08-22T23:33:48.265Z,21.10
2018-08-22T23:36:17.870Z,21.10
2018-08-22T23:38:47.594Z,21.00
2018-08-22T23:41:17.306Z,21.00
2018-08-22T23:43:52.679Z,20.90
2018-08-22T23:46:22.279Z,20.90
2018-08-22T23:48:59.281Z,20.90
2018-08-22T23:51:29.043Z,20.80
2018-08-22T23:54:00.100Z,20.80
2018-08-22T23:56:30.906Z,20.80
2018-08-22T23:59:00.845Z,20.70
